Talbott, Illinois
Current Conditions -  °F | °C
As of 7:54 AM on Friday 31 Oct 2014 (Local Time) from KPIA Reporting Station
Broken Clouds Broken Clouds  
Wind Chill: 29°   Ceiling: 3700
Heat Index: 37°   Visibility: 10mi
Dew Point: 21°   Wind: 12mph
Humidity: 52%   Direction: 330°NNW
Pressure: 30.22"   Gusts: 25mph
Location:  40.3879°N, 89.7742°W
Report Text: KPIA 311254Z 33010G22KT 10SM BKN037 03/M06 A3022 RMK AO2 PK WND 32029/1205 SLP237 T00281061
Loading
Personal Weather Stations






























Interactive Weather Map
Tropical Storm Tracking
New forecast layout! Learn more

10-Day Weather Forecast

Advertisements
Track Severe Weather on mobile